Time;durP1;ratioP1;P1;durP2;ratioP2;P2;SDS_P1;SDS_P2;PMS_P1;PMS_P2;Temp;Humidity;BMP_temperature;BMP_pressure;BME280_temperature;BME280_humidity;BME280_pressure;Samples;Min_cycle;Max_cycle;Signal;HPM_P1;HPM_P2
2021/10/18 00:00:16;;;;;;;15.27;12.60;;;10.60;99.90;;;;;;6061733;23;20033;-61
2021/10/18 00:02:50;;;;;;;15.63;12.48;;;10.60;99.90;;;;;;6060932;23;20026;-59
2021/10/18 00:05:17;;;;;;;16.00;11.98;;;10.50;99.90;;;;;;6060453;23;20452;-60
2021/10/18 00:07:44;;;;;;;18.30;12.20;;;10.50;99.90;;;;;;6061093;23;20109;-60
2021/10/18 00:10:14;;;;;;;15.75;13.05;;;10.50;99.90;;;;;;6061032;23;20038;-60
2021/10/18 00:12:44;;;;;;;18.35;14.20;;;10.50;99.90;;;;;;6061443;23;20701;-62
2021/10/18 00:15:15;;;;;;;16.90;13.27;;;10.50;99.90;;;;;;6062752;23;20033;-60
2021/10/18 00:17:44;;;;;;;15.27;13.17;;;10.50;99.90;;;;;;6062472;23;20042;-61
2021/10/18 00:20:15;;;;;;;17.80;13.48;;;10.50;99.90;;;;;;6062697;23;20034;-60
2021/10/18 00:22:44;;;;;;;17.55;13.52;;;10.50;99.90;;;;;;6063085;23;20031;-60
2021/10/18 00:25:15;;;;;;;20.67;14.48;;;10.50;99.90;;;;;;6062296;23;20065;-61
2021/10/18 00:27:44;;;;;;;16.98;14.77;;;10.40;99.90;;;;;;6063472;23;20035;-61
2021/10/18 00:30:14;;;;;;;17.77;14.05;;;10.40;99.90;;;;;;6063100;23;20026;-59
2021/10/18 00:32:46;;;;;;;18.17;14.63;;;10.40;99.90;;;;;;6051023;23;20031;-62
2021/10/18 00:35:16;;;;;;;17.75;14.07;;;10.40;99.90;;;;;;6061805;23;20027;-59
2021/10/18 00:37:48;;;;;;;17.42;13.95;;;10.30;99.90;;;;;;6062126;23;20198;-61
2021/10/18 00:40:16;;;;;;;18.23;14.63;;;10.30;99.90;;;;;;6062369;23;20397;-60
2021/10/18 00:42:45;;;;;;;17.88;15.23;;;10.30;99.90;;;;;;6037618;23;20125;-61
2021/10/18 00:45:13;;;;;;;19.52;13.73;;;10.30;99.90;;;;;;6060187;23;20062;-60
2021/10/18 00:47:42;;;;;;;18.75;14.75;;;10.30;99.90;;;;;;6060879;23;20134;-60
2021/10/18 00:50:13;;;;;;;16.90;14.38;;;10.30;99.90;;;;;;6061033;23;20035;-59
2021/10/18 00:52:43;;;;;;;20.23;14.93;;;10.30;99.90;;;;;;6061170;23;20089;-60
2021/10/18 00:55:14;;;;;;;17.25;14.10;;;10.30;99.90;;;;;;6061055;23;20066;-61
2021/10/18 00:57:43;;;;;;;17.13;15.00;;;10.30;99.90;;;;;;6061118;23;20106;-60
2021/10/18 01:00:10;;;;;;;17.23;14.85;;;10.30;99.90;;;;;;6060399;23;20035;-60
2021/10/18 01:02:39;;;;;;;18.83;14.93;;;10.30;99.90;;;;;;6061005;23;20023;-60
2021/10/18 01:05:07;;;;;;;17.63;15.52;;;10.30;99.90;;;;;;6060072;23;20035;-59
2021/10/18 01:07:34;;;;;;;17.38;15.00;;;10.20;99.90;;;;;;6060358;23;20030;-59
2021/10/18 01:10:03;;;;;;;17.77;15.98;;;10.30;99.90;;;;;;6060907;23;20026;-61
2021/10/18 01:12:29;;;;;;;17.52;15.43;;;10.30;99.90;;;;;;6061473;23;20069;-61
2021/10/18 01:14:58;;;;;;;18.23;15.68;;;10.30;99.90;;;;;;6035669;23;20034;-59
2021/10/18 01:17:27;;;;;;;18.55;15.48;;;10.20;99.90;;;;;;6033716;23;20034;-61
2021/10/18 01:19:54;;;;;;;18.05;15.75;;;10.20;99.90;;;;;;6060377;23;20026;-60
2021/10/18 01:22:22;;;;;;;18.88;15.10;;;10.20;99.90;;;;;;6060992;23;20037;-62
2021/10/18 01:24:50;;;;;;;22.55;16.67;;;10.20;99.90;;;;;;6060567;23;20489;-57
2021/10/18 01:27:21;;;;;;;20.85;16.65;;;10.20;99.90;;;;;;6061115;23;20026;-61
2021/10/18 01:29:50;;;;;;;21.38;18.13;;;10.10;99.90;;;;;;6060684;23;20066;-57
2021/10/18 01:32:19;;;;;;;18.73;15.88;;;10.10;99.90;;;;;;6060912;23;20034;-60
2021/10/18 01:34:50;;;;;;;17.93;16.13;;;10.10;99.90;;;;;;6061112;23;20023;-62
2021/10/18 01:37:18;;;;;;;21.58;16.75;;;10.10;99.90;;;;;;6060152;23;20278;-61
2021/10/18 01:39:47;;;;;;;18.50;16.35;;;10.10;99.90;;;;;;6060468;23;20069;-58
2021/10/18 01:42:13;;;;;;;18.55;16.33;;;10.10;99.90;;;;;;6061171;23;20102;-59
2021/10/18 01:44:39;;;;;;;20.25;17.42;;;10.10;99.90;;;;;;6060460;23;20031;-60
2021/10/18 01:47:08;;;;;;;18.70;15.88;;;10.10;99.90;;;;;;6060126;23;20073;-61
2021/10/18 01:49:36;;;;;;;22.42;16.80;;;10.10;99.90;;;;;;6060170;23;20056;-60
2021/10/18 01:52:03;;;;;;;19.23;17.00;;;10.10;99.90;;;;;;6035602;23;20102;-60
2021/10/18 01:54:31;;;;;;;20.92;17.23;;;10.00;99.90;;;;;;6060864;23;20035;-59
2021/10/18 01:57:00;;;;;;;20.88;16.63;;;10.00;99.90;;;;;;6059655;23;20038;-61
2021/10/18 01:59:34;;;;;;;23.57;16.27;;;10.00;99.90;;;;;;6061182;23;20026;-59
2021/10/18 02:02:03;;;;;;;19.95;17.23;;;9.90;99.90;;;;;;6058854;23;20043;-60
2021/10/18 02:04:34;;;;;;;20.17;16.83;;;9.80;99.90;;;;;;6034969;23;20579;-61
2021/10/18 02:07:00;;;;;;;19.38;16.90;;;9.70;99.90;;;;;;6062036;23;20033;-60
2021/10/18 02:09:29;;;;;;;19.50;16.33;;;9.70;99.90;;;;;;6035955;23;20516;-60
2021/10/18 02:11:55;;;;;;;22.20;16.63;;;9.60;99.90;;;;;;6060878;23;20034;-61
2021/10/18 02:14:24;;;;;;;19.10;16.27;;;9.50;99.90;;;;;;6061550;23;20035;-61
2021/10/18 02:16:53;;;;;;;23.52;17.60;;;9.50;99.90;;;;;;6035535;23;20026;-60
2021/10/18 02:19:21;;;;;;;19.25;16.65;;;9.40;99.90;;;;;;6062185;23;20407;-62
2021/10/18 02:21:51;;;;;;;20.35;17.83;;;9.30;99.90;;;;;;6061290;23;20053;-59
2021/10/18 02:24:18;;;;;;;21.83;17.38;;;9.20;99.90;;;;;;6061331;23;20050;-61
2021/10/18 02:26:49;;;;;;;23.25;17.02;;;9.10;99.90;;;;;;6060890;23;20093;-60
2021/10/18 02:29:18;;;;;;;20.25;17.83;;;9.10;99.90;;;;;;6061875;23;20031;-60
2021/10/18 02:31:46;;;;;;;20.88;17.13;;;9.00;99.90;;;;;;6061011;23;20027;-61
2021/10/18 02:34:17;;;;;;;19.40;16.80;;;9.00;99.90;;;;;;6061785;23;20077;-60
2021/10/18 02:36:46;;;;;;;21.20;16.13;;;8.90;99.90;;;;;;6060753;23;20109;-61
2021/10/18 02:39:14;;;;;;;20.88;17.23;;;8.80;99.90;;;;;;6061282;23;20489;-60
2021/10/18 02:41:43;;;;;;;21.33;17.83;;;8.80;99.90;;;;;;6060852;23;20105;-61
2021/10/18 02:44:12;;;;;;;21.17;18.23;;;8.70;99.90;;;;;;6060193;23;20034;-61
2021/10/18 02:46:40;;;;;;;21.50;17.25;;;8.70;99.90;;;;;;6061400;23;20053;-60
2021/10/18 02:49:06;;;;;;;21.90;16.98;;;8.60;99.90;;;;;;6060521;23;20082;-61
2021/10/18 02:51:37;;;;;;;22.38;18.38;;;8.60;99.90;;;;;;6060972;23;20065;-60
2021/10/18 02:54:10;;;;;;;25.70;19.15;;;8.50;99.90;;;;;;6060938;23;20030;-60
2021/10/18 02:56:41;;;;;;;21.40;17.90;;;8.50;99.90;;;;;;6048749;23;20031;-60
2021/10/18 02:59:10;;;;;;;21.25;18.10;;;8.50;99.90;;;;;;6061429;23;20101;-61
2021/10/18 03:01:37;;;;;;;23.10;19.55;;;8.40;99.90;;;;;;6062192;23;20029;-60
2021/10/18 03:04:03;;;;;;;21.38;18.90;;;8.40;99.90;;;;;;6060800;23;20342;-60
2021/10/18 03:06:31;;;;;;;23.08;20.17;;;8.30;99.90;;;;;;6061107;23;20357;-61
2021/10/18 03:09:01;;;;;;;23.50;17.75;;;8.30;99.90;;;;;;6061160;23;20086;-59
2021/10/18 03:11:29;;;;;;;22.13;19.75;;;8.20;99.90;;;;;;6062121;23;20022;-61
2021/10/18 03:13:59;;;;;;;22.40;19.90;;;8.20;99.90;;;;;;6061536;23;20022;-59
2021/10/18 03:16:32;;;;;;;26.50;19.50;;;8.30;99.90;;;;;;6059708;23;20030;-58
2021/10/18 03:19:03;;;;;;;24.40;20.05;;;8.30;99.90;;;;;;6060252;23;20334;-60
2021/10/18 03:21:32;;;;;;;26.67;20.33;;;8.30;99.90;;;;;;6061171;23;20401;-61
2021/10/18 03:24:04;;;;;;;24.75;19.42;;;8.40;99.90;;;;;;6061632;23;20443;-59
2021/10/18 03:26:30;;;;;;;23.73;20.00;;;8.30;99.90;;;;;;6063578;23;20059;-60
2021/10/18 03:28:58;;;;;;;23.52;20.90;;;8.40;99.90;;;;;;6062641;23;20109;-59
2021/10/18 03:31:29;;;;;;;22.27;19.63;;;8.40;99.90;;;;;;6062550;23;20354;-57
2021/10/18 03:33:58;;;;;;;23.35;19.45;;;8.40;99.90;;;;;;6037628;23;20026;-61
2021/10/18 03:36:27;;;;;;;23.25;19.20;;;8.40;99.90;;;;;;6062881;23;20027;-59
2021/10/18 03:38:53;;;;;;;23.08;20.00;;;8.40;99.90;;;;;;6063116;23;20034;-61
2021/10/18 03:41:22;;;;;;;25.85;19.35;;;8.40;99.90;;;;;;6063702;23;20034;-60
2021/10/18 03:43:51;;;;;;;21.75;18.98;;;8.40;99.90;;;;;;6062926;23;20066;-59
2021/10/18 03:46:22;;;;;;;25.15;20.98;;;8.40;99.90;;;;;;6063190;23;20022;-60
2021/10/18 03:48:50;;;;;;;22.95;19.90;;;8.40;99.90;;;;;;6063019;23;20035;-61
2021/10/18 03:51:17;;;;;;;26.00;21.30;;;8.50;99.90;;;;;;6063054;23;20062;-58
2021/10/18 03:53:45;;;;;;;25.63;21.20;;;8.60;99.90;;;;;;6062218;23;20109;-60
2021/10/18 03:56:13;;;;;;;23.75;20.55;;;8.60;99.90;;;;;;6062422;23;20066;-59
2021/10/18 03:58:42;;;;;;;23.65;20.10;;;8.70;99.90;;;;;;6062155;23;20026;-61
2021/10/18 04:01:09;;;;;;;23.73;20.20;;;8.70;99.90;;;;;;6062575;23;20027;-59
2021/10/18 04:03:38;;;;;;;23.98;20.17;;;8.70;99.90;;;;;;6062219;23;20027;-60
2021/10/18 04:06:10;;;;;;;22.48;19.98;;;8.80;99.90;;;;;;6062253;23;20032;-61
2021/10/18 04:08:39;;;;;;;26.60;21.58;;;8.80;99.90;;;;;;6060535;23;20384;-61
2021/10/18 04:11:08;;;;;;;27.80;21.80;;;8.80;99.90;;;;;;6063185;23;20031;-60
2021/10/18 04:13:34;;;;;;;23.95;21.45;;;8.80;99.90;;;;;;6062707;23;20035;-60
2021/10/18 04:16:03;;;;;;;23.67;20.65;;;8.80;99.90;;;;;;6062668;23;20078;-60
2021/10/18 04:18:32;;;;;;;25.90;22.83;;;8.80;99.90;;;;;;6062220;23;20034;-62
2021/10/18 04:21:00;;;;;;;27.58;22.38;;;8.80;99.90;;;;;;6062985;23;20027;-61
2021/10/18 04:23:27;;;;;;;26.77;22.60;;;8.80;99.90;;;;;;6061602;23;20023;-62
2021/10/18 04:25:56;;;;;;;26.83;22.83;;;8.80;99.90;;;;;;6061537;23;20058;-61
2021/10/18 04:28:28;;;;;;;29.40;23.20;;;8.80;99.90;;;;;;6061514;23;20405;-61
2021/10/18 04:30:56;;;;;;;24.85;22.02;;;8.80;99.90;;;;;;6061809;23;20031;-60
2021/10/18 04:33:25;;;;;;;28.88;22.52;;;8.80;99.90;;;;;;6062170;23;20060;-60
2021/10/18 04:35:56;;;;;;;25.63;22.95;;;8.80;99.90;;;;;;6060994;23;20482;-60
2021/10/18 04:38:25;;;;;;;27.80;23.63;;;8.80;99.90;;;;;;6061588;23;20134;-61
2021/10/18 04:40:54;;;;;;;25.17;21.80;;;8.70;99.90;;;;;;6061895;23;20037;-61
2021/10/18 04:43:24;;;;;;;26.95;24.05;;;8.70;99.90;;;;;;6060488;23;20034;-62
2021/10/18 04:45:55;;;;;;;28.50;24.20;;;8.70;99.90;;;;;;6061774;23;20034;-59
2021/10/18 04:48:21;;;;;;;29.55;24.65;;;8.70;99.90;;;;;;6061548;23;20031;-61
2021/10/18 04:50:52;;;;;;;33.05;26.95;;;8.70;99.90;;;;;;6060874;23;20097;-61
2021/10/18 04:53:23;;;;;;;28.52;24.65;;;8.70;99.90;;;;;;6061686;23;20022;-61
2021/10/18 04:55:51;;;;;;;28.35;24.10;;;8.70;99.90;;;;;;6061851;23;20026;-60
2021/10/18 04:58:17;;;;;;;32.92;26.55;;;8.60;99.90;;;;;;6061495;23;20034;-62
2021/10/18 05:00:55;;;;;;;32.00;25.05;;;8.60;99.90;;;;;;6062210;23;20084;-61
2021/10/18 05:03:24;;;;;;;29.45;26.35;;;8.60;99.90;;;;;;6061984;23;20042;-62
2021/10/18 05:05:52;;;;;;;30.65;26.38;;;8.60;99.90;;;;;;6060549;23;20022;-59
2021/10/18 05:08:21;;;;;;;29.40;26.23;;;8.50;99.90;;;;;;6035725;23;20077;-57
2021/10/18 05:10:47;;;;;;;30.92;26.75;;;8.50;99.90;;;;;;6061458;23;20647;-62
2021/10/18 05:13:15;;;;;;;32.35;26.80;;;8.50;99.90;;;;;;6060298;23;20030;-59
2021/10/18 05:15:46;;;;;;;31.30;27.92;;;8.40;99.90;;;;;;6060757;23;20042;-61
2021/10/18 05:18:15;;;;;;;33.05;28.33;;;8.40;99.90;;;;;;6037394;23;20050;-59
2021/10/18 05:20:41;;;;;;;32.45;28.73;;;8.40;99.90;;;;;;6062586;23;20034;-59
2021/10/18 05:23:16;;;;;;;35.35;28.75;;;8.40;99.90;;;;;;6063014;23;20523;-59
2021/10/18 05:25:43;;;;;;;37.22;29.38;;;8.40;99.90;;;;;;6062516;23;20031;-59
2021/10/18 05:28:14;;;;;;;31.02;27.75;;;8.40;99.90;;;;;;6062938;23;20031;-59
2021/10/18 05:30:48;;;;;;;34.78;27.30;;;8.40;99.90;;;;;;6062208;23;20105;-59
2021/10/18 05:33:14;;;;;;;32.63;29.10;;;8.40;99.90;;;;;;6062356;23;20041;-59
2021/10/18 05:35:42;;;;;;;143.40;114.50;;;8.30;99.90;;;;;;6061825;23;20755;-58
2021/10/18 05:38:11;;;;;;;34.03;30.23;;;8.30;99.90;;;;;;6062602;23;20030;-59
2021/10/18 05:40:38;;;;;;;35.58;31.08;;;8.30;99.90;;;;;;6063279;23;20031;-59
2021/10/18 05:43:09;;;;;;;42.40;37.80;;;8.30;99.90;;;;;;6063227;23;20102;-59
2021/10/18 05:45:35;;;;;;;35.45;30.58;;;8.20;99.90;;;;;;6062449;23;20495;-60
2021/10/18 05:48:05;;;;;;;39.58;32.88;;;8.20;99.90;;;;;;6063294;23;20050;-59
2021/10/18 05:50:38;;;;;;;34.63;29.77;;;8.20;99.90;;;;;;6063596;23;20101;-60
2021/10/18 05:53:07;;;;;;;35.53;30.85;;;8.10;99.90;;;;;;6063427;23;20023;-59
2021/10/18 05:55:33;;;;;;;38.63;31.05;;;8.10;99.90;;;;;;6062837;23;20108;-59
2021/10/18 05:58:07;;;;;;;36.53;30.05;;;8.10;99.90;;;;;;6062626;23;20475;-59
2021/10/18 06:00:36;;;;;;;32.15;28.63;;;8.00;99.90;;;;;;6062951;23;20129;-59
2021/10/18 06:03:05;;;;;;;34.22;30.52;;;8.00;99.90;;;;;;6062917;23;20406;-59
2021/10/18 06:05:47;;;;;;;37.72;32.33;;;8.00;99.90;;;;;;6061645;23;20583;-60
2021/10/18 06:08:14;;;;;;;;;;;8.00;99.90;;;;;;6062347;23;20033;-58
2021/10/18 06:10:44;;;;;;;78.43;61.05;;;8.00;99.90;;;;;;6063110;23;19928;-59
2021/10/18 06:13:13;;;;;;;48.08;37.95;;;8.10;99.90;;;;;;6062704;23;20713;-59
2021/10/18 06:15:42;;;;;;;36.45;31.27;;;8.10;99.90;;;;;;6062089;23;20039;-59
2021/10/18 06:18:14;;;;;;;40.38;33.25;;;8.10;99.90;;;;;;6062797;23;20027;-57
2021/10/18 06:20:42;;;;;;;41.20;35.08;;;8.20;99.90;;;;;;6063526;23;20027;-58
2021/10/18 06:23:10;;;;;;;39.65;32.90;;;8.30;99.90;;;;;;6061945;23;20341;-60
2021/10/18 06:25:36;;;;;;;38.15;32.50;;;8.40;99.90;;;;;;6055501;23;20732;-53
2021/10/18 06:28:03;;;;;;;36.38;32.22;;;8.50;99.90;;;;;;6060204;23;20027;-49
2021/10/18 06:30:29;;;;;;;39.72;32.85;;;8.50;99.90;;;;;;6059853;23;20026;-53
2021/10/18 06:33:03;;;;;;;40.08;32.53;;;8.60;99.90;;;;;;6060879;23;20066;-52
2021/10/18 06:35:34;;;;;;;35.83;31.98;;;8.70;99.90;;;;;;6060407;23;20023;-52
2021/10/18 06:38:00;;;;;;;33.30;29.67;;;8.70;99.90;;;;;;6060800;23;20034;-51
2021/10/18 06:40:28;;;;;;;38.22;32.22;;;8.80;99.90;;;;;;6060573;23;20489;-53
2021/10/18 06:42:55;;;;;;;36.05;32.17;;;8.80;99.90;;;;;;6060470;23;20738;-51
2021/10/18 06:45:24;;;;;;;40.90;33.83;;;8.80;99.90;;;;;;6009939;23;20405;-50
2021/10/18 06:47:50;;;;;;;36.85;31.77;;;8.80;99.90;;;;;;6059747;23;20030;-50
2021/10/18 06:50:17;;;;;;;38.13;33.33;;;8.80;99.90;;;;;;6059764;23;20449;-51
2021/10/18 06:52:45;;;;;;;36.03;32.17;;;8.80;99.90;;;;;;6059621;23;20162;-50
2021/10/18 06:55:16;;;;;;;37.20;30.70;;;8.80;99.90;;;;;;6058757;23;20034;-51
2021/10/18 06:57:45;;;;;;;34.72;31.00;;;8.90;99.90;;;;;;6060790;23;20082;-50
2021/10/18 07:00:12;;;;;;;33.13;29.60;;;9.00;99.90;;;;;;6060590;23;20039;-53
2021/10/18 07:02:38;;;;;;;38.15;31.58;;;9.00;99.90;;;;;;6061398;23;20509;-54
2021/10/18 07:05:04;;;;;;;35.67;29.77;;;9.10;99.90;;;;;;6059881;23;20814;-50
2021/10/18 07:07:31;;;;;;;33.80;30.33;;;9.20;99.90;;;;;;6056126;23;20356;-52
2021/10/18 07:10:00;;;;;;;34.25;28.85;;;9.30;99.90;;;;;;6058125;23;20058;-51
2021/10/18 07:12:34;;;;;;;32.20;28.73;;;9.40;99.90;;;;;;6057866;23;20110;-55
2021/10/18 07:15:00;;;;;;;34.08;30.40;;;9.50;99.90;;;;;;6057557;23;20540;-50
2021/10/18 07:17:27;;;;;;;33.03;29.52;;;9.60;99.90;;;;;;6007382;23;20058;-53
2021/10/18 07:19:55;;;;;;;31.95;28.60;;;9.70;99.90;;;;;;6058874;23;20326;-55
2021/10/18 07:22:26;;;;;;;32.60;28.42;;;9.70;99.90;;;;;;6033613;23;20405;-54
2021/10/18 07:24:55;;;;;;;29.45;26.27;;;9.80;99.90;;;;;;6059760;23;20038;-55
2021/10/18 07:27:26;;;;;;;32.42;27.52;;;9.90;99.90;;;;;;6059866;23;20119;-50
2021/10/18 07:29:56;;;;;;;31.75;28.27;;;10.00;99.90;;;;;;6060364;23;20397;-53
2021/10/18 07:32:43;;;;;;;32.10;27.98;;;10.10;99.90;;;;;;6060303;23;20101;-54
2021/10/18 07:35:12;;;;;;;29.88;25.20;;;10.30;99.90;;;;;;6038111;23;20030;-50
2021/10/18 07:37:40;;;;;;;27.95;24.92;;;10.40;99.90;;;;;;6059414;23;20035;-53
2021/10/18 07:40:07;;;;;;;30.67;26.88;;;10.50;99.90;;;;;;6059768;23;20030;-51
2021/10/18 07:42:39;;;;;;;28.88;25.80;;;10.60;99.90;;;;;;6060216;23;20539;-49
2021/10/18 07:45:06;;;;;;;31.77;26.92;;;10.70;99.90;;;;;;6058414;23;20023;-50
2021/10/18 07:47:32;;;;;;;28.08;24.75;;;10.80;99.90;;;;;;6060057;23;20094;-50
2021/10/18 07:49:58;;;;;;;29.40;26.30;;;10.90;99.90;;;;;;6033440;23;20027;-53
2021/10/18 07:52:24;;;;;;;27.50;24.83;;;11.00;99.90;;;;;;6058579;23;20027;-51
2021/10/18 07:55:00;;;;;;;27.20;24.08;;;11.00;99.90;;;;;;6060924;23;20026;-50
2021/10/18 07:57:28;;;;;;;27.55;24.63;;;11.10;99.90;;;;;;6060221;23;20027;-53
2021/10/18 07:59:58;;;;;;;27.75;24.75;;;11.20;99.90;;;;;;6060731;23;20024;-52
2021/10/18 08:02:27;;;;;;;27.77;24.85;;;11.20;99.90;;;;;;6060961;23;20094;-51
2021/10/18 08:04:53;;;;;;;25.92;23.25;;;11.30;99.90;;;;;;6060610;23;20527;-51
2021/10/18 08:07:26;;;;;;;26.63;23.63;;;11.30;99.90;;;;;;6060846;23;20170;-51
2021/10/18 08:09:55;;;;;;;28.27;25.23;;;11.30;99.90;;;;;;6061162;23;20035;-49
2021/10/18 08:12:21;;;;;;;26.50;22.90;;;11.30;99.90;;;;;;6062475;23;20077;-51
2021/10/18 08:14:47;;;;;;;26.85;23.98;;;11.40;99.90;;;;;;6031918;23;20034;-49
2021/10/18 08:17:16;;;;;;;26.15;23.35;;;11.40;99.90;;;;;;6032398;23;20026;-50
2021/10/18 08:19:43;;;;;;;26.05;23.17;;;11.40;99.90;;;;;;6060172;23;20037;-52
2021/10/18 08:22:11;;;;;;;24.88;22.30;;;11.50;99.90;;;;;;6062861;23;20114;-52
2021/10/18 08:24:47;;;;;;;26.55;23.67;;;11.50;99.90;;;;;;6062448;23;20352;-53
2021/10/18 08:27:19;;;;;;;26.77;23.95;;;11.50;99.90;;;;;;6061069;23;20443;-53
2021/10/18 08:29:50;;;;;;;25.70;23.02;;;11.60;99.90;;;;;;6061564;23;20030;-51
2021/10/18 08:32:16;;;;;;;26.35;23.58;;;11.60;99.90;;;;;;6061618;23;20027;-53
2021/10/18 08:34:43;;;;;;;27.27;24.00;;;11.70;99.90;;;;;;6063070;23;20118;-49
2021/10/18 08:37:13;;;;;;;26.40;23.67;;;11.70;99.90;;;;;;6062766;23;20027;-48
2021/10/18 08:42:28;;;;;;;26.52;23.73;;;11.90;99.90;;;;;;6062923;23;20030;-54
2021/10/18 08:44:55;;;;;;;26.58;23.95;;;11.80;99.90;;;;;;6062268;23;20038;-54
2021/10/18 08:47:30;;;;;;;33.67;28.67;;;11.80;99.90;;;;;;6062517;23;20469;-52
2021/10/18 08:49:58;;;;;;;26.13;23.50;;;11.90;99.90;;;;;;6062635;23;20037;-52
2021/10/18 08:52:24;;;;;;;25.45;22.85;;;11.90;99.90;;;;;;6061420;23;20067;-54
2021/10/18 08:54:50;;;;;;;29.00;25.85;;;12.00;99.90;;;;;;6061780;23;20027;-53
2021/10/18 08:57:16;;;;;;;27.23;23.08;;;12.00;99.90;;;;;;6061020;23;20106;-51
2021/10/18 08:59:42;;;;;;;26.52;23.73;;;12.10;99.90;;;;;;6061479;23;20033;-54
2021/10/18 09:02:08;;;;;;;28.60;24.85;;;12.20;99.90;;;;;;6061676;23;20508;-54
2021/10/18 09:04:38;;;;;;;25.92;23.15;;;12.40;99.90;;;;;;6061827;23;20142;-53
2021/10/18 09:07:17;;;;;;;25.42;22.17;;;12.50;99.90;;;;;;6061353;23;20034;-54
2021/10/18 09:09:50;;;;;;;27.05;22.58;;;12.70;99.90;;;;;;6061468;23;20092;-54
2021/10/18 09:12:35;;;;;;;27.52;24.50;;;12.80;99.90;;;;;;6061152;23;20531;-54
2021/10/18 09:15:27;;;;;;;26.58;23.73;;;12.80;99.90;;;;;;6061770;23;20105;-54
2021/10/18 09:17:56;;;;;;;25.63;22.45;;;12.90;99.90;;;;;;6061713;23;20069;-55
2021/10/18 09:20:36;;;;;;;26.27;23.40;;;13.00;99.90;;;;;;6061960;23;20026;-53
2021/10/18 09:23:29;;;;;;;23.60;21.10;;;13.10;99.90;;;;;;6060919;23;20023;-53
2021/10/18 09:26:07;;;;;;;29.58;24.35;;;13.40;99.90;;;;;;6060981;23;20037;-55
2021/10/18 09:28:35;;;;;;;24.80;21.90;;;13.70;99.90;;;;;;6061080;23;20876;-55
2021/10/18 09:31:01;;;;;;;23.92;21.42;;;13.80;99.90;;;;;;6061494;23;20034;-54
2021/10/18 09:33:31;;;;;;;25.33;22.63;;;13.90;99.90;;;;;;6061075;23;20031;-54
2021/10/18 09:36:01;;;;;;;23.83;21.05;;;14.00;99.90;;;;;;6062501;23;20067;-55
2021/10/18 09:38:27;;;;;;;24.80;20.88;;;14.20;99.90;;;;;;6035966;23;20441;-53
2021/10/18 09:40:59;;;;;;;24.42;22.00;;;14.70;99.90;;;;;;6061453;23;20121;-56
2021/10/18 09:44:05;;;;;;;24.02;21.23;;;14.90;99.90;;;;;;6061193;23;20034;-56
2021/10/18 09:46:39;;;;;;;30.95;26.77;;;15.20;99.90;;;;;;6059117;23;20070;-58
2021/10/18 10:54:05;;;;;;;21.90;19.00;;;16.20;99.90;;;;;;6031549;23;20120;-50
2021/10/18 10:56:44;;;;;;;22.92;19.48;;;16.40;99.90;;;;;;6032435;23;20035;-50
2021/10/18 10:59:26;;;;;;;21.05;18.73;;;16.80;99.90;;;;;;6031197;23;20031;-50
2021/10/18 11:02:18;;;;;;;21.25;18.98;;;17.00;99.90;;;;;;6032142;23;20357;-49
2021/10/18 11:04:46;;;;;;;21.20;18.15;;;17.30;99.90;;;;;;6032495;23;20047;-50
2021/10/18 11:07:21;;;;;;;23.73;19.40;;;17.30;99.90;;;;;;6033143;23;20023;-50
2021/10/18 11:09:50;;;;;;;19.88;17.77;;;17.40;99.90;;;;;;6032014;23;20035;-52
2021/10/18 11:12:27;;;;;;;22.38;19.95;;;17.40;99.90;;;;;;6031560;23;20038;-51
2021/10/18 11:15:04;;;;;;;20.33;17.30;;;17.60;99.90;;;;;;6033149;23;20059;-50
2021/10/18 11:17:39;;;;;;;20.00;17.63;;;18.10;99.90;;;;;;6032313;23;20033;-50
2021/10/18 11:20:16;;;;;;;17.55;15.73;;;18.70;99.90;;;;;;6031720;23;20073;-52
2021/10/18 11:22:45;;;;;;;22.88;19.27;;;18.70;98.50;;;;;;6031715;23;20028;-52
2021/10/18 11:25:24;;;;;;;20.63;17.58;;;18.40;97.30;;;;;;6031904;23;20516;-49
2021/10/18 11:27:56;;;;;;;18.92;16.67;;;18.40;97.00;;;;;;6031704;23;20031;-51
2021/10/18 11:30:27;;;;;;;17.73;15.82;;;18.40;98.00;;;;;;6031721;23;20090;-49
2021/10/18 11:32:57;;;;;;;20.17;18.03;;;18.90;98.30;;;;;;6031655;23;20027;-50
2021/10/18 11:35:25;;;;;;;16.85;15.02;;;19.10;93.40;;;;;;6032665;23;20286;-53
2021/10/18 11:37:58;;;;;;;17.63;15.90;;;19.30;95.50;;;;;;6032547;23;20562;-49
2021/10/18 11:40:39;;;;;;;18.05;16.15;;;18.90;95.10;;;;;;6031633;23;20648;-49
2021/10/18 11:43:07;;;;;;;19.35;17.35;;;18.80;95.00;;;;;;6031628;23;20031;-48
2021/10/18 11:45:36;;;;;;;16.63;15.02;;;18.70;94.90;;;;;;6032778;23;20034;-49
2021/10/18 11:48:13;;;;;;;18.58;16.67;;;18.70;96.40;;;;;;6034104;23;20155;-51
2021/10/18 11:50:47;;;;;;;18.35;16.15;;;18.40;96.40;;;;;;6034370;23;20031;-48
2021/10/18 11:53:22;;;;;;;17.60;15.70;;;18.20;96.80;;;;;;6033428;23;20019;-49
2021/10/18 11:55:53;;;;;;;15.90;14.27;;;17.90;99.40;;;;;;6033175;23;20543;-49
2021/10/18 11:58:24;;;;;;;24.85;22.30;;;17.60;98.70;;;;;;6055117;23;20027;-57
2021/10/18 12:01:05;;;;;;;21.05;16.92;;;17.50;99.10;;;;;;6055725;23;20027;-57
2021/10/18 12:03:33;;;;;;;25.20;22.63;;;17.60;99.90;;;;;;6034534;23;20080;-55
2021/10/18 12:06:02;;;;;;;22.90;17.15;;;17.50;99.90;;;;;;6035267;23;20031;-57
2021/10/18 12:08:30;;;;;;;24.75;21.08;;;17.60;99.90;;;;;;6034263;23;20027;-57
2021/10/18 12:10:57;;;;;;;22.67;19.05;;;17.50;99.90;;;;;;6033800;23;20468;-58
2021/10/18 12:13:27;;;;;;;20.80;16.70;;;17.10;99.90;;;;;;6033745;23;20106;-58
2021/10/18 12:16:02;;;;;;;22.20;19.90;;;16.90;99.90;;;;;;6034555;23;20102;-58
2021/10/18 12:18:45;;;;;;;20.33;18.23;;;16.90;99.90;;;;;;6034627;23;20039;-58
2021/10/18 12:21:23;;;;;;;16.50;14.68;;;16.80;99.90;;;;;;6034024;23;20561;-58
2021/10/18 12:23:55;;;;;;;18.15;16.33;;;16.80;99.90;;;;;;6034487;23;20031;-58
2021/10/18 12:26:24;;;;;;;18.83;15.32;;;16.80;99.90;;;;;;6034329;23;20031;-58
2021/10/18 12:28:51;;;;;;;32.20;28.45;;;16.90;99.90;;;;;;6034445;23;20102;-58
2021/10/18 12:31:29;;;;;;;20.77;15.27;;;17.20;99.90;;;;;;6032527;23;20600;-58
2021/10/18 12:34:01;;;;;;;17.73;15.57;;;17.30;99.90;;;;;;6035001;23;20105;-58
2021/10/18 12:36:28;;;;;;;18.08;15.10;;;17.50;99.80;;;;;;6034439;23;20023;-58
2021/10/18 12:39:00;;;;;;;78.85;70.13;;;17.70;99.90;;;;;;6033725;23;20038;-58
2021/10/18 12:41:26;;;;;;;19.52;17.35;;;17.80;98.90;;;;;;6034307;23;20043;-58
2021/10/18 12:43:52;;;;;;;32.28;28.17;;;17.80;99.40;;;;;;6034412;23;20474;-58
2021/10/18 12:46:20;;;;;;;17.27;12.63;;;18.10;98.30;;;;;;6034250;23;20465;-59
2021/10/18 12:49:01;;;;;;;14.38;11.63;;;18.40;97.40;;;;;;6034162;23;20031;-54
2021/10/18 12:51:36;;;;;;;13.32;11.55;;;18.20;94.70;;;;;;6033641;23;20027;-55
2021/10/18 12:54:26;;;;;;;14.30;12.60;;;17.80;95.80;;;;;;6033880;23;20074;-55
2021/10/18 12:56:58;;;;;;;15.52;11.40;;;17.60;95.90;;;;;;6033669;23;20438;-54
2021/10/18 12:59:29;;;;;;;15.20;13.05;;;17.30;97.50;;;;;;6033993;23;20030;-54
2021/10/18 13:02:15;;;;;;;17.67;14.68;;;17.10;99.10;;;;;;6033393;23;20465;-53
2021/10/18 13:05:05;;;;;;;15.07;12.20;;;17.00;99.90;;;;;;6034444;23;20031;-54
2021/10/18 13:07:33;;;;;;;17.10;12.40;;;17.10;99.90;;;;;;6034359;23;20066;-51
2021/10/18 13:09:59;;;;;;;18.08;14.68;;;16.70;99.90;;;;;;6034593;23;20098;-53
2021/10/18 13:12:28;;;;;;;13.95;12.13;;;16.80;99.90;;;;;;6033692;23;20118;-54
2021/10/18 13:14:56;;;;;;;13.85;11.20;;;16.70;99.90;;;;;;6035156;23;20046;-54
2021/10/18 13:17:28;;;;;;;14.23;11.15;;;16.50;99.90;;;;;;6034172;23;20089;-48
2021/10/18 13:19:55;;;;;;;15.60;11.60;;;16.50;99.90;;;;;;6033637;23;20031;-49
2021/10/18 13:22:22;;;;;;;14.27;12.77;;;16.50;99.90;;;;;;6034351;23;20075;-48
2021/10/18 13:24:48;;;;;;;16.50;12.23;;;16.40;99.90;;;;;;6033442;23;20032;-49
2021/10/18 13:27:15;;;;;;;14.75;11.88;;;16.40;99.90;;;;;;6033639;23;20027;-51
2021/10/18 13:29:44;;;;;;;15.25;13.20;;;16.40;99.90;;;;;;6031472;23;20067;-50
2021/10/18 13:32:12;;;;;;;14.95;12.35;;;16.50;99.90;;;;;;6031483;23;20450;-49
2021/10/18 13:34:42;;;;;;;14.73;12.07;;;16.60;99.90;;;;;;6033967;23;20171;-51
2021/10/18 13:37:11;;;;;;;14.93;12.60;;;16.60;99.90;;;;;;6033662;23;20721;-49
2021/10/18 13:39:41;;;;;;;18.88;15.63;;;16.50;99.90;;;;;;6034090;23;20210;-49
2021/10/18 13:42:08;;;;;;;15.35;12.57;;;16.40;99.90;;;;;;6034242;23;20081;-47
2021/10/18 13:44:35;;;;;;;14.82;12.73;;;16.30;99.90;;;;;;6033774;23;20450;-49
2021/10/18 13:47:02;;;;;;;15.65;12.43;;;16.50;99.90;;;;;;6034415;23;20035;-49
2021/10/18 13:49:32;;;;;;;66.20;59.03;;;16.60;99.90;;;;;;6032363;23;20406;-55
2021/10/18 13:51:58;;;;;;;26.92;22.88;;;16.60;99.90;;;;;;6033062;23;20031;-56